createdAt,value
2017-09-25T00:02:19.371Z,11.47
2017-09-25T00:04:45.636Z,11.87
2017-09-25T00:07:11.849Z,11.13
2017-09-25T00:09:38.051Z,11.20
2017-09-25T00:12:04.303Z,12.67
2017-09-25T00:14:30.528Z,11.87
2017-09-25T00:16:56.746Z,12.13
2017-09-25T00:19:23.003Z,12.07
2017-09-25T00:21:49.227Z,11.17
2017-09-25T00:24:15.464Z,12.10
2017-09-25T00:26:41.720Z,9.37
2017-09-25T00:29:07.957Z,10.40
2017-09-25T00:31:34.187Z,12.50
2017-09-25T00:34:00.468Z,10.90
2017-09-25T00:36:26.678Z,10.97
2017-09-25T00:38:52.898Z,11.90
2017-09-25T00:41:19.168Z,11.47
2017-09-25T00:43:45.388Z,12.40
2017-09-25T00:46:11.591Z,12.73
2017-09-25T00:48:37.860Z,11.73
2017-09-25T00:51:04.087Z,11.43
2017-09-25T00:53:30.491Z,12.60
2017-09-25T00:55:56.773Z,10.77
2017-09-25T00:58:22.989Z,10.87
2017-09-25T01:00:49.219Z,10.87
2017-09-25T01:03:15.452Z,10.50
2017-09-25T01:05:41.675Z,10.27
2017-09-25T01:08:07.912Z,10.40
2017-09-25T01:10:34.152Z,10.63
2017-09-25T01:13:00.946Z,11.13
2017-09-25T01:15:27.246Z,12.53
2017-09-25T01:17:53.506Z,12.23
2017-09-25T01:20:19.713Z,9.87
2017-09-25T01:22:45.929Z,11.30
2017-09-25T01:25:12.197Z,9.80
2017-09-25T01:27:38.432Z,10.23
2017-09-25T01:30:04.643Z,9.93
2017-09-25T01:32:30.903Z,10.50
2017-09-25T01:34:57.125Z,10.03
2017-09-25T01:37:23.348Z,10.60
2017-09-25T01:39:49.616Z,11.87
2017-09-25T01:42:15.859Z,12.07
2017-09-25T01:44:42.077Z,8.50
2017-09-25T01:47:08.345Z,9.23
2017-09-25T01:49:34.588Z,10.27
2017-09-25T01:52:00.835Z,10.53
2017-09-25T01:54:27.095Z,9.33
2017-09-25T01:56:53.313Z,10.50
2017-09-25T01:59:19.534Z,9.87
2017-09-25T02:01:45.827Z,10.87
2017-09-25T02:04:12.055Z,9.83
2017-09-25T02:06:38.289Z,10.33
2017-09-25T02:09:04.565Z,10.83
2017-09-25T02:11:30.791Z,9.73
2017-09-25T02:13:57.034Z,11.20
2017-09-25T02:16:23.309Z,11.80
2017-09-25T02:18:49.544Z,11.50
2017-09-25T02:21:15.777Z,11.13
2017-09-25T02:23:42.022Z,10.97
2017-09-25T02:26:08.246Z,10.90
2017-09-25T02:28:34.453Z,10.97
2017-09-25T02:31:00.723Z,10.40
2017-09-25T02:33:26.950Z,9.17
2017-09-25T02:35:53.176Z,11.87
2017-09-25T02:38:19.433Z,11.17
2017-09-25T02:40:45.664Z,12.43
2017-09-25T02:43:11.890Z,11.60
2017-09-25T02:45:38.130Z,11.80
2017-09-25T02:48:04.325Z,10.20
2017-09-25T02:50:30.518Z,10.20
2017-09-25T02:52:56.784Z,9.53
2017-09-25T02:55:22.998Z,10.10
2017-09-25T02:57:49.232Z,10.17
2017-09-25T03:00:15.510Z,10.27
2017-09-25T03:02:41.849Z,11.47
2017-09-25T03:05:08.087Z,10.50
2017-09-25T03:07:34.471Z,11.70
2017-09-25T03:10:00.694Z,11.67
2017-09-25T03:12:26.914Z,10.00
2017-09-25T03:14:53.216Z,9.30
2017-09-25T03:17:19.639Z,10.10
2017-09-25T03:19:45.875Z,9.83
2017-09-25T03:22:12.148Z,9.73
2017-09-25T03:24:38.380Z,11.60
2017-09-25T03:27:04.606Z,10.73
2017-09-25T03:29:30.862Z,9.87
2017-09-25T03:31:57.099Z,10.63
2017-09-25T03:34:23.317Z,9.40
2017-09-25T03:36:49.609Z,9.90
2017-09-25T03:39:15.864Z,10.30
2017-09-25T03:41:42.085Z,10.40
2017-09-25T03:44:08.360Z,10.40
2017-09-25T03:46:34.583Z,10.00
2017-09-25T03:49:00.820Z,9.83
2017-09-25T03:51:27.091Z,11.20
2017-09-25T03:53:53.288Z,10.47
2017-09-25T03:56:19.519Z,9.47
2017-09-25T03:58:45.802Z,10.20
2017-09-25T04:01:12.017Z,11.00
2017-09-25T04:03:38.243Z,12.60
2017-09-25T04:06:04.525Z,10.50
2017-09-25T04:08:30.770Z,10.50
2017-09-25T04:10:56.995Z,11.27
2017-09-25T04:13:23.272Z,10.00
2017-09-25T04:15:49.507Z,11.03
2017-09-25T04:18:15.730Z,11.17
2017-09-25T04:20:41.993Z,11.90
2017-09-25T04:23:08.223Z,11.10
2017-09-25T04:25:34.464Z,11.60
2017-09-25T04:28:00.741Z,12.50
2017-09-25T04:30:26.960Z,11.00
2017-09-25T04:32:53.177Z,10.17
2017-09-25T04:35:19.439Z,10.90
2017-09-25T04:37:45.678Z,10.83
2017-09-25T04:40:11.922Z,11.00
2017-09-25T04:42:38.190Z,10.53
2017-09-25T04:45:04.433Z,11.57
2017-09-25T04:47:30.663Z,11.30
2017-09-25T04:49:56.921Z,13.03
2017-09-25T04:52:23.161Z,12.00
2017-09-25T04:54:49.391Z,10.53
2017-09-25T04:57:15.685Z,9.53
2017-09-25T04:59:41.899Z,8.43
2017-09-25T05:02:08.136Z,9.93
2017-09-25T05:04:34.441Z,9.17
2017-09-25T05:07:00.682Z,8.13
2017-09-25T05:09:26.922Z,10.33
2017-09-25T05:11:53.226Z,10.67
2017-09-25T05:14:19.472Z,10.73
2017-09-25T05:16:45.732Z,12.70
2017-09-25T05:19:12.015Z,13.73
2017-09-25T05:21:38.257Z,12.90
2017-09-25T05:24:04.480Z,13.47
2017-09-25T05:26:30.775Z,10.50
2017-09-25T05:28:56.985Z,11.70
2017-09-25T05:31:23.231Z,11.93
2017-09-25T05:33:49.515Z,12.07
2017-09-25T05:36:15.770Z,10.73
2017-09-25T05:38:41.986Z,10.43
2017-09-25T05:41:08.209Z,9.77
2017-09-25T05:43:34.575Z,10.00
2017-09-25T05:46:00.855Z,8.43
2017-09-25T05:48:27.081Z,10.60
2017-09-25T05:50:53.298Z,9.20
2017-09-25T05:53:19.599Z,9.90
2017-09-25T05:55:45.844Z,9.43
2017-09-25T05:58:12.099Z,9.67
2017-09-25T06:00:38.366Z,9.83
2017-09-25T06:03:04.592Z,9.13
2017-09-25T06:05:30.800Z,9.37
2017-09-25T06:07:57.079Z,10.93
2017-09-25T06:10:23.307Z,10.43
2017-09-25T06:12:49.543Z,11.13
2017-09-25T06:15:15.815Z,13.23
2017-09-25T06:17:42.028Z,11.27
2017-09-25T06:20:08.263Z,16.07
2017-09-25T06:22:34.531Z,28.03
2017-09-25T06:25:00.777Z,12.30
2017-09-25T06:27:27.005Z,11.30
2017-09-25T06:29:53.264Z,10.97
2017-09-25T06:32:19.499Z,10.77
2017-09-25T06:34:45.732Z,9.80
2017-09-25T06:37:13.453Z,12.73
2017-09-25T06:39:39.688Z,10.70
2017-09-25T06:42:05.918Z,12.63
2017-09-25T06:44:32.235Z,14.20
2017-09-25T06:46:58.448Z,14.53
2017-09-25T06:49:24.686Z,14.23
2017-09-25T06:51:51.078Z,12.27
2017-09-25T06:54:17.303Z,11.43
2017-09-25T06:56:43.521Z,13.37
2017-09-25T06:59:09.796Z,12.20
2017-09-25T07:01:36.029Z,13.53
2017-09-25T07:04:02.259Z,13.07
2017-09-25T07:06:28.519Z,13.13
2017-09-25T07:08:54.745Z,13.07
2017-09-25T07:11:20.970Z,12.80
2017-09-25T07:13:47.242Z,13.50
2017-09-25T07:16:13.468Z,14.33
2017-09-25T07:18:39.698Z,13.97
2017-09-25T07:21:05.983Z,12.73
2017-09-25T07:23:32.209Z,13.37
2017-09-25T07:25:58.429Z,12.90
2017-09-25T07:28:24.681Z,12.03
2017-09-25T07:30:50.904Z,12.30
2017-09-25T07:33:17.140Z,11.83
2017-09-25T07:35:43.397Z,10.37
2017-09-25T07:38:09.625Z,12.20
2017-09-25T07:40:35.848Z,10.70
2017-09-25T07:43:02.098Z,9.53
2017-09-25T07:45:28.317Z,9.40
2017-09-25T07:47:54.548Z,9.70
2017-09-25T07:50:20.814Z,9.70
2017-09-25T07:52:47.047Z,8.33
2017-09-25T07:55:13.302Z,8.03
2017-09-25T07:57:39.577Z,5.53
2017-09-25T08:00:05.833Z,6.30
2017-09-25T08:02:32.067Z,6.63
2017-09-25T08:04:58.339Z,7.37
2017-09-25T08:07:24.564Z,5.73
2017-09-25T08:09:50.805Z,7.30
2017-09-25T08:12:17.068Z,6.97
2017-09-25T08:14:43.305Z,7.80
2017-09-25T08:17:09.549Z,6.87
2017-09-25T08:19:35.818Z,8.00
2017-09-25T08:22:02.044Z,6.90
2017-09-25T08:24:28.261Z,7.20
2017-09-25T08:26:54.516Z,7.67
2017-09-25T08:29:20.744Z,8.30
2017-09-25T08:31:46.977Z,7.20
2017-09-25T08:34:13.237Z,9.43
2017-09-25T08:36:39.465Z,7.57
2017-09-25T08:39:05.692Z,8.33
2017-09-25T08:41:31.955Z,7.40
2017-09-25T08:43:58.200Z,7.27
2017-09-25T08:46:24.440Z,6.37
2017-09-25T08:48:50.810Z,7.67
2017-09-25T08:51:17.040Z,7.93
2017-09-25T08:53:43.270Z,7.60
2017-09-25T08:56:09.535Z,6.80
2017-09-25T08:58:35.778Z,8.10
2017-09-25T09:01:02.011Z,6.77
2017-09-25T09:03:28.291Z,6.93
2017-09-25T09:05:54.514Z,7.00
2017-09-25T09:08:20.742Z,7.00
2017-09-25T09:10:47.032Z,6.87
2017-09-25T09:13:13.259Z,6.40
2017-09-25T09:15:39.477Z,7.80
2017-09-25T09:18:05.760Z,7.80
2017-09-25T09:20:31.990Z,5.87
2017-09-25T09:22:58.213Z,6.17
2017-09-25T09:25:24.466Z,5.37
2017-09-25T09:27:50.695Z,5.23
2017-09-25T09:30:16.924Z,5.33
2017-09-25T09:32:43.310Z,3.67
2017-09-25T09:35:09.548Z,3.00
2017-09-25T09:37:35.781Z,3.80
2017-09-25T09:40:02.048Z,2.97
2017-09-25T09:42:28.296Z,3.33
2017-09-25T09:44:54.532Z,3.77
2017-09-25T09:47:20.789Z,3.47
2017-09-25T09:49:47.010Z,3.50
2017-09-25T09:52:13.250Z,3.83
2017-09-25T09:54:39.515Z,3.67
2017-09-25T09:57:05.733Z,3.40
2017-09-25T09:59:31.968Z,3.10
2017-09-25T10:01:58.250Z,3.60
2017-09-25T10:04:24.481Z,3.77
2017-09-25T10:06:50.771Z,2.70
2017-09-25T10:09:17.040Z,4.63
2017-09-25T10:11:43.256Z,3.20
2017-09-25T10:14:09.484Z,3.60
2017-09-25T10:16:35.741Z,3.50
2017-09-25T10:19:01.955Z,3.53
2017-09-25T10:21:28.171Z,3.50
2017-09-25T10:23:54.443Z,2.97
2017-09-25T10:26:20.669Z,3.17
2017-09-25T10:28:47.008Z,3.27
2017-09-25T10:31:13.301Z,3.70
2017-09-25T10:33:39.518Z,4.37
2017-09-25T10:36:05.751Z,4.00
2017-09-25T10:38:32.029Z,4.00
2017-09-25T10:40:58.242Z,3.70
2017-09-25T10:43:24.462Z,3.70
2017-09-25T10:45:50.719Z,4.30
2017-09-25T10:48:17.002Z,3.50
2017-09-25T10:50:43.232Z,3.90
2017-09-25T10:53:09.507Z,3.30
2017-09-25T10:55:35.723Z,3.80
2017-09-25T10:58:01.947Z,5.13
2017-09-25T11:00:28.214Z,5.20
2017-09-25T11:02:54.456Z,3.80
2017-09-25T11:05:20.674Z,3.43
2017-09-25T11:07:46.932Z,3.10
2017-09-25T11:10:13.173Z,3.30
2017-09-25T11:12:39.400Z,3.40
2017-09-25T11:15:05.676Z,3.30
2017-09-25T11:17:31.910Z,3.10
2017-09-25T11:19:58.155Z,3.77
2017-09-25T11:22:24.440Z,3.30
2017-09-25T11:24:50.658Z,2.97
2017-09-25T11:27:16.874Z,3.23
2017-09-25T11:29:43.143Z,2.80
2017-09-25T11:32:09.374Z,3.57
2017-09-25T11:34:35.590Z,3.37
2017-09-25T11:37:01.872Z,3.00
2017-09-25T11:39:28.097Z,3.20
2017-09-25T11:41:54.337Z,3.13
2017-09-25T11:44:20.581Z,3.07
2017-09-25T11:46:46.836Z,3.67
2017-09-25T11:49:13.072Z,3.10
2017-09-25T11:51:39.298Z,3.83
2017-09-25T11:54:05.519Z,3.87
2017-09-25T11:56:31.828Z,3.30
2017-09-25T11:58:58.061Z,3.97
2017-09-25T12:01:24.295Z,3.30
2017-09-25T12:03:50.570Z,4.00
2017-09-25T12:06:16.812Z,3.73
2017-09-25T12:08:43.045Z,3.67
2017-09-25T12:11:09.325Z,3.80
2017-09-25T12:13:35.538Z,3.57
2017-09-25T12:16:01.778Z,2.90
2017-09-25T12:18:28.055Z,3.80
2017-09-25T12:20:54.318Z,3.47
2017-09-25T12:23:20.553Z,3.30
2017-09-25T12:25:46.823Z,4.37
2017-09-25T12:28:13.049Z,4.20
2017-09-25T12:30:39.304Z,3.50
2017-09-25T12:33:05.564Z,4.77
2017-09-25T12:35:31.804Z,4.07
2017-09-25T12:37:58.037Z,4.83
2017-09-25T12:40:24.317Z,3.87
2017-09-25T12:42:50.565Z,4.77
2017-09-25T12:45:16.782Z,5.20
2017-09-25T12:47:43.047Z,4.13
2017-09-25T12:50:09.280Z,5.00
2017-09-25T12:52:35.701Z,4.60
2017-09-25T12:55:01.981Z,4.53
2017-09-25T12:57:28.321Z,4.20
2017-09-25T12:59:54.558Z,4.53
2017-09-25T13:02:20.833Z,5.00
2017-09-25T13:04:47.059Z,6.10
2017-09-25T13:07:13.269Z,6.43
2017-09-25T13:09:39.527Z,5.10
2017-09-25T13:12:05.753Z,5.40
2017-09-25T13:14:32.015Z,5.10
2017-09-25T13:16:58.292Z,5.00
2017-09-25T13:19:24.516Z,6.07
2017-09-25T13:21:50.892Z,4.90
2017-09-25T13:24:17.144Z,5.23
2017-09-25T13:26:43.352Z,4.00
2017-09-25T13:29:09.567Z,5.33
2017-09-25T13:31:35.818Z,4.20
2017-09-25T13:34:02.205Z,5.23
2017-09-25T13:36:28.430Z,5.00
2017-09-25T13:38:54.680Z,4.63
2017-09-25T13:41:20.905Z,4.53
2017-09-25T13:43:47.114Z,5.00
2017-09-25T13:46:13.369Z,4.80
2017-09-25T13:48:39.626Z,4.57
2017-09-25T13:51:05.845Z,5.00
2017-09-25T13:53:32.105Z,4.20
2017-09-25T13:55:58.330Z,4.37
2017-09-25T13:58:24.711Z,5.10
2017-09-25T14:03:22.446Z,4.90
2017-09-25T14:05:48.665Z,5.20
2017-09-25T14:08:14.932Z,4.53
2017-09-25T14:10:41.178Z,5.70
2017-09-25T14:13:07.423Z,5.60
2017-09-25T14:15:33.683Z,4.53
2017-09-25T14:18:00.035Z,4.37
2017-09-25T14:20:26.327Z,4.90
2017-09-25T14:22:52.728Z,5.83
2017-09-25T14:25:18.996Z,4.80
2017-09-25T14:27:45.392Z,4.83
2017-09-25T14:30:11.657Z,4.70
2017-09-25T14:32:37.897Z,5.63
2017-09-25T14:35:04.138Z,5.37
2017-09-25T14:37:30.512Z,4.73
2017-09-25T14:39:56.730Z,4.80
2017-09-25T14:42:22.969Z,5.33
2017-09-25T14:44:49.244Z,5.33
2017-09-25T14:47:15.501Z,5.93
2017-09-25T14:49:41.737Z,5.90
2017-09-25T14:52:08.014Z,5.33
2017-09-25T14:54:34.273Z,5.90
2017-09-25T14:57:00.513Z,5.33
2017-09-25T14:59:26.805Z,5.80
2017-09-25T15:01:53.021Z,5.37
2017-09-25T15:04:19.246Z,5.30
2017-09-25T15:06:45.506Z,5.80
2017-09-25T15:09:11.733Z,5.93
2017-09-25T15:11:37.964Z,5.50
2017-09-25T15:14:04.242Z,5.67
2017-09-25T15:16:30.464Z,5.40
2017-09-25T15:18:56.699Z,4.73
2017-09-25T15:21:22.973Z,4.93
2017-09-25T15:23:49.186Z,5.27
2017-09-25T15:26:15.490Z,5.83
2017-09-25T15:28:41.753Z,5.40
2017-09-25T15:31:07.980Z,5.07
2017-09-25T15:33:34.228Z,6.23
2017-09-25T15:36:00.490Z,5.80
2017-09-25T15:38:26.716Z,5.27
2017-09-25T15:40:52.929Z,5.77
2017-09-25T15:43:19.196Z,5.97
2017-09-25T15:45:45.422Z,6.40
2017-09-25T15:48:11.662Z,6.70
2017-09-25T15:50:37.915Z,6.13
2017-09-25T15:53:04.135Z,7.50
2017-09-25T15:55:30.355Z,7.20
2017-09-25T15:57:56.618Z,7.30
2017-09-25T16:00:22.829Z,7.73
2017-09-25T16:02:49.071Z,5.50
2017-09-25T16:05:15.356Z,8.70
2017-09-25T16:07:41.569Z,7.07
2017-09-25T16:10:08.001Z,7.57
2017-09-25T16:12:34.250Z,8.70
2017-09-25T16:15:00.447Z,7.50
2017-09-25T16:17:26.678Z,11.87
2017-09-25T16:19:52.944Z,12.23
2017-09-25T16:22:19.167Z,10.33
2017-09-25T16:24:45.417Z,9.60
2017-09-25T16:27:11.724Z,10.40
2017-09-25T16:29:37.987Z,13.20
2017-09-25T16:32:04.219Z,10.63
2017-09-25T16:34:30.486Z,10.27
2017-09-25T16:36:56.732Z,13.30
2017-09-25T16:39:22.970Z,9.57
2017-09-25T16:41:49.225Z,10.80
2017-09-25T16:44:15.453Z,10.00
2017-09-25T16:46:41.687Z,11.50
2017-09-25T16:49:07.941Z,9.60
2017-09-25T16:51:34.186Z,10.07
2017-09-25T16:54:00.412Z,9.00
2017-09-25T16:56:26.855Z,11.67
2017-09-25T16:58:53.098Z,10.50
2017-09-25T17:01:19.324Z,9.60
2017-09-25T17:03:45.585Z,11.43
2017-09-25T17:06:11.814Z,12.10
2017-09-25T17:08:38.039Z,20.03
2017-09-25T17:11:04.324Z,10.67
2017-09-25T17:13:30.547Z,11.17
2017-09-25T17:15:57.328Z,10.63
2017-09-25T17:18:25.292Z,10.13
2017-09-25T17:20:52.737Z,11.90
2017-09-25T17:23:19.964Z,10.63
2017-09-25T17:25:47.135Z,10.97
2017-09-25T17:28:13.937Z,11.00
2017-09-25T17:30:40.785Z,12.03
2017-09-25T17:33:07.166Z,9.30
2017-09-25T17:35:33.395Z,11.10
2017-09-25T17:37:59.608Z,10.47
2017-09-25T17:40:25.847Z,10.93
2017-09-25T17:42:52.057Z,13.13
2017-09-25T17:45:18.274Z,10.47
2017-09-25T17:47:44.529Z,12.77
2017-09-25T17:50:10.748Z,9.67
2017-09-25T17:52:37.180Z,12.60
2017-09-25T17:55:03.430Z,12.13
2017-09-25T17:57:29.630Z,13.77
2017-09-25T17:59:55.843Z,11.10
2017-09-25T18:02:22.090Z,12.30
2017-09-25T18:04:48.305Z,15.50
2017-09-25T18:07:14.536Z,10.40
2017-09-25T18:09:40.762Z,13.60
2017-09-25T18:12:06.979Z,10.43
2017-09-25T18:14:33.202Z,12.97
2017-09-25T18:16:59.470Z,13.80
2017-09-25T18:19:25.711Z,10.80
2017-09-25T18:21:51.956Z,19.60
2017-09-25T18:24:18.198Z,10.17
2017-09-25T18:26:44.416Z,9.23
2017-09-25T18:29:10.640Z,11.20
2017-09-25T18:31:36.922Z,9.93
2017-09-25T18:34:03.147Z,9.87
2017-09-25T18:36:29.384Z,9.97
2017-09-25T18:38:55.657Z,10.50
2017-09-25T18:41:21.962Z,15.00
2017-09-25T18:43:48.190Z,11.27
2017-09-25T18:46:14.465Z,12.53
2017-09-25T18:48:40.692Z,9.57
2017-09-25T18:51:06.908Z,9.80
2017-09-25T18:53:33.158Z,9.40
2017-09-25T18:55:59.369Z,12.03
2017-09-25T18:58:25.584Z,14.00
2017-09-25T19:00:51.844Z,11.20
2017-09-25T19:03:18.079Z,10.47
2017-09-25T19:05:44.287Z,10.70
2017-09-25T19:08:10.532Z,11.60
2017-09-25T19:10:36.761Z,11.40
2017-09-25T19:13:02.986Z,10.87
2017-09-25T19:15:29.245Z,11.53
2017-09-25T19:17:55.476Z,9.93
2017-09-25T19:20:21.716Z,11.53
2017-09-25T19:22:47.992Z,13.40
2017-09-25T19:25:14.237Z,9.60
2017-09-25T19:27:40.477Z,11.10
2017-09-25T19:30:06.766Z,14.17
2017-09-25T19:32:32.976Z,11.57
2017-09-25T19:34:59.210Z,12.43
2017-09-25T19:37:25.462Z,13.53
2017-09-25T19:39:51.667Z,16.13
2017-09-25T19:42:17.895Z,12.57
2017-09-25T19:44:44.153Z,11.50
2017-09-25T19:47:10.379Z,10.77
2017-09-25T19:49:36.629Z,10.70
2017-09-25T19:52:02.888Z,10.40
2017-09-25T19:54:29.118Z,10.20
2017-09-25T19:56:55.389Z,10.17
2017-09-25T19:59:21.637Z,8.67
2017-09-25T20:01:47.864Z,9.60
2017-09-25T20:04:14.090Z,9.90
2017-09-25T20:06:40.373Z,9.03
2017-09-25T20:09:06.609Z,11.70
2017-09-25T20:11:32.832Z,10.27
2017-09-25T20:13:59.093Z,10.93
2017-09-25T20:16:25.325Z,12.97
2017-09-25T20:18:51.560Z,11.50
2017-09-25T20:21:17.841Z,11.90
2017-09-25T20:23:44.112Z,10.90
2017-09-25T20:26:10.341Z,13.53
2017-09-25T20:28:36.745Z,12.70
2017-09-25T20:31:03.070Z,14.60
2017-09-25T20:33:29.300Z,14.00
2017-09-25T20:35:55.555Z,13.53
2017-09-25T20:38:21.770Z,11.17
2017-09-25T20:40:48.008Z,13.23
2017-09-25T20:43:14.260Z,11.13
2017-09-25T20:45:40.491Z,9.40
2017-09-25T20:48:06.712Z,10.23
2017-09-25T20:50:33.002Z,11.30
2017-09-25T20:52:59.256Z,10.20
2017-09-25T20:55:25.466Z,11.47
2017-09-25T20:57:51.727Z,10.90
2017-09-25T21:00:17.958Z,11.00
2017-09-25T21:02:44.176Z,10.53
2017-09-25T21:05:10.442Z,11.33
2017-09-25T21:07:36.676Z,10.20
2017-09-25T21:10:02.896Z,12.00
2017-09-25T21:12:29.166Z,10.33
2017-09-25T21:14:55.399Z,9.57
2017-09-25T21:17:21.614Z,10.20
2017-09-25T21:19:47.898Z,10.57
2017-09-25T21:22:14.110Z,10.37
2017-09-25T21:24:40.318Z,10.20
2017-09-25T21:27:06.585Z,11.00
2017-09-25T21:29:32.803Z,11.83
2017-09-25T21:31:58.824Z,10.37
2017-09-25T21:34:25.098Z,10.60
2017-09-25T21:36:51.308Z,10.27
2017-09-25T21:39:17.526Z,12.60
2017-09-25T21:41:43.793Z,12.13
2017-09-25T21:44:10.007Z,10.50
2017-09-25T21:46:36.224Z,13.93
2017-09-25T21:49:02.524Z,11.90
2017-09-25T21:51:28.737Z,11.47
2017-09-25T21:53:54.955Z,12.13
2017-09-25T21:56:21.225Z,11.10
2017-09-25T21:58:47.426Z,12.37
2017-09-25T22:03:45.970Z,12.20
2017-09-25T22:06:12.193Z,11.77
2017-09-25T22:08:38.423Z,13.20
2017-09-25T22:11:04.676Z,11.10
2017-09-25T22:13:30.901Z,12.10
2017-09-25T22:15:57.132Z,11.70
2017-09-25T22:18:23.407Z,11.37
2017-09-25T22:20:49.647Z,12.27
2017-09-25T22:23:15.865Z,12.13
2017-09-25T22:25:42.115Z,14.20
2017-09-25T22:28:08.349Z,12.90
2017-09-25T22:30:34.556Z,12.27
2017-09-25T22:33:00.790Z,11.80
2017-09-25T22:35:27.024Z,11.00
2017-09-25T22:37:53.233Z,11.10
2017-09-25T22:40:19.485Z,12.43
2017-09-25T22:42:45.690Z,13.03
2017-09-25T22:45:11.923Z,13.70
2017-09-25T22:47:38.186Z,12.53
2017-09-25T22:50:04.416Z,11.17
2017-09-25T22:52:30.651Z,9.50
2017-09-25T22:54:56.924Z,11.77
2017-09-25T22:57:23.148Z,11.17
2017-09-25T22:59:49.377Z,10.77
2017-09-25T23:02:15.644Z,11.67
2017-09-25T23:04:41.860Z,10.40
2017-09-25T23:07:08.089Z,10.70
2017-09-25T23:09:34.358Z,10.93
2017-09-25T23:12:00.575Z,11.10
2017-09-25T23:14:26.781Z,11.00
2017-09-25T23:16:53.056Z,10.40
2017-09-25T23:19:19.269Z,8.87
2017-09-25T23:21:45.490Z,9.30
2017-09-25T23:24:11.759Z,10.37
2017-09-25T23:26:38.012Z,9.43
2017-09-25T23:29:04.231Z,9.70
2017-09-25T23:31:30.486Z,11.37
2017-09-25T23:33:56.701Z,10.07
2017-09-25T23:36:22.924Z,11.47
2017-09-25T23:38:49.179Z,8.87
2017-09-25T23:41:15.392Z,11.03
2017-09-25T23:43:41.597Z,10.87
2017-09-25T23:46:07.879Z,9.90
2017-09-25T23:48:34.085Z,9.40
2017-09-25T23:51:00.311Z,9.50
2017-09-25T23:53:26.531Z,10.40
2017-09-25T23:55:52.735Z,9.63
2017-09-25T23:58:18.942Z,10.40
